createdAt,value
2023-01-10T00:00:23.215Z,84.65
2023-01-10T00:02:51.265Z,84.68
2023-01-10T00:05:18.843Z,84.74
2023-01-10T00:07:46.128Z,84.89
2023-01-10T00:10:14.209Z,84.95
2023-01-10T00:12:59.534Z,84.89
2023-01-10T00:15:26.370Z,85.07
2023-01-10T00:17:53.422Z,84.88
2023-01-10T00:20:20.191Z,84.71
2023-01-10T00:22:47.687Z,84.84
2023-01-10T00:25:16.172Z,85.02
2023-01-10T00:27:45.331Z,84.86
2023-01-10T00:30:15.600Z,84.91
2023-01-10T00:32:42.431Z,85.08
2023-01-10T00:35:09.511Z,84.78
2023-01-10T00:37:36.382Z,84.94
2023-01-10T00:40:03.521Z,84.77
2023-01-10T00:42:50.331Z,84.88
2023-01-10T00:45:19.762Z,84.82
2023-01-10T00:47:46.608Z,84.85
2023-01-10T00:50:13.475Z,84.87
2023-01-10T00:52:40.506Z,84.99
2023-01-10T00:55:08.365Z,84.85
2023-01-10T00:57:36.483Z,84.89
2023-01-10T01:00:03.977Z,84.87
2023-01-10T01:02:30.725Z,84.95
2023-01-10T01:04:57.436Z,84.87
2023-01-10T01:07:24.140Z,84.76
2023-01-10T01:10:09.255Z,84.53
2023-01-10T01:12:37.395Z,84.57
2023-01-10T01:15:04.815Z,84.77
2023-01-10T01:17:31.740Z,84.69
2023-01-10T01:19:58.465Z,84.55
2023-01-10T01:22:25.183Z,84.72
2023-01-10T01:24:51.894Z,84.63
2023-01-10T01:27:18.669Z,84.68
2023-01-10T01:29:46.754Z,84.68
2023-01-10T01:32:13.559Z,84.68
2023-01-10T01:34:41.110Z,84.98
2023-01-10T01:37:07.736Z,84.64
2023-01-10T01:39:34.556Z,84.75
2023-01-10T01:42:01.555Z,84.61
2023-01-10T01:44:31.749Z,84.69
2023-01-10T01:47:05.783Z,84.75
2023-01-10T01:49:37.540Z,84.81
2023-01-10T01:52:11.937Z,84.64
2023-01-10T01:54:38.734Z,84.71
2023-01-10T01:57:10.083Z,84.76
2023-01-10T01:59:40.148Z,84.71
2023-01-10T02:02:13.588Z,84.77
2023-01-10T02:04:46.907Z,84.66
2023-01-10T02:07:14.817Z,84.68
2023-01-10T02:09:47.977Z,84.90
2023-01-10T02:12:15.652Z,84.92
2023-01-10T02:14:44.925Z,84.78
2023-01-10T02:17:13.096Z,84.84
2023-01-10T02:19:51.302Z,84.79
2023-01-10T02:23:03.733Z,84.86
2023-01-10T02:26:13.629Z,84.57
2023-01-10T02:29:14.282Z,84.66
2023-01-10T02:32:10.471Z,84.65
2023-01-10T02:34:49.239Z,84.78
2023-01-10T02:37:21.795Z,84.81
2023-01-10T02:39:58.254Z,84.74
2023-01-10T02:42:31.479Z,84.87
2023-01-10T02:45:04.849Z,84.92
2023-01-10T02:47:36.864Z,84.80
2023-01-10T02:50:28.165Z,84.82
2023-01-10T02:52:56.749Z,85.09
2023-01-10T02:55:32.441Z,84.90
2023-01-10T02:58:10.093Z,85.07
2023-01-10T03:00:46.116Z,84.97
2023-01-10T03:03:27.598Z,85.19
2023-01-10T03:06:07.678Z,85.12
2023-01-10T03:08:40.412Z,85.33
2023-01-10T03:11:10.109Z,85.19
2023-01-10T03:13:43.960Z,85.25
2023-01-10T03:16:13.845Z,85.29
2023-01-10T03:18:46.789Z,85.11
2023-01-10T03:21:18.434Z,85.42
2023-01-10T03:23:48.105Z,85.41
2023-01-10T03:26:17.658Z,85.43
2023-01-10T03:28:49.721Z,85.47
2023-01-10T03:31:22.051Z,85.43
2023-01-10T03:33:50.407Z,85.47
2023-01-10T03:36:26.807Z,85.41
2023-01-10T03:38:56.224Z,85.51
2023-01-10T03:41:33.634Z,85.43
2023-01-10T03:44:28.848Z,85.22
2023-01-10T03:47:01.605Z,85.62
2023-01-10T03:49:31.613Z,85.50
2023-01-10T03:51:58.909Z,85.53
2023-01-10T03:54:25.747Z,85.70
2023-01-10T03:56:52.698Z,85.62
2023-01-10T03:59:23.336Z,85.49
2023-01-10T04:01:50.578Z,85.68
2023-01-10T04:04:17.423Z,85.55
2023-01-10T04:06:45.640Z,85.67
2023-01-10T04:09:12.989Z,85.60
2023-01-10T04:11:39.692Z,85.92
2023-01-10T04:14:06.638Z,85.88
2023-01-10T04:16:33.622Z,85.67
2023-01-10T04:19:00.445Z,85.98
2023-01-10T04:21:27.079Z,85.96
2023-01-10T04:23:55.169Z,86.01
2023-01-10T04:26:21.939Z,85.88
2023-01-10T04:28:48.636Z,85.89
2023-01-10T04:31:15.448Z,86.10
2023-01-10T04:33:42.260Z,86.12
2023-01-10T04:36:09.168Z,85.97
2023-01-10T04:38:35.915Z,86.09
2023-01-10T04:41:04.157Z,86.06
2023-01-10T04:43:32.270Z,86.16
2023-01-10T04:45:59.354Z,86.15
2023-01-10T04:48:27.107Z,85.99
2023-01-10T04:50:54.199Z,86.26
2023-01-10T04:53:21.557Z,86.16
2023-01-10T04:55:48.263Z,85.97
2023-01-10T04:58:16.453Z,86.20
2023-01-10T05:00:43.180Z,86.21
2023-01-10T05:03:09.987Z,86.19
2023-01-10T05:05:36.758Z,86.17
2023-01-10T05:08:03.791Z,86.21
2023-01-10T05:10:30.627Z,86.23
2023-01-10T05:12:57.369Z,86.21
2023-01-10T05:15:25.572Z,86.31
2023-01-10T05:17:58.203Z,86.13
2023-01-10T05:20:24.879Z,86.19
2023-01-10T05:22:51.738Z,86.11
2023-01-10T05:25:20.022Z,86.18
2023-01-10T05:27:46.835Z,86.04
2023-01-10T05:30:14.414Z,86.18
2023-01-10T05:32:42.610Z,86.16
2023-01-10T05:35:09.985Z,86.13
2023-01-10T05:37:38.097Z,86.08
2023-01-10T05:40:06.350Z,86.15
2023-01-10T05:42:33.296Z,86.08
2023-01-10T05:45:00.119Z,86.04
2023-01-10T05:47:27.192Z,86.22
2023-01-10T05:49:55.195Z,86.17
2023-01-10T05:52:21.949Z,86.02
2023-01-10T05:54:48.718Z,85.77
2023-01-10T05:57:15.646Z,86.12
2023-01-10T05:59:42.338Z,85.64
2023-01-10T06:02:09.132Z,85.95
2023-01-10T06:04:36.022Z,85.80
2023-01-10T06:07:10.879Z,86.12
2023-01-10T06:09:37.530Z,86.15
2023-01-10T06:12:04.655Z,85.74
2023-01-10T06:14:31.396Z,86.01
2023-01-10T06:16:58.314Z,86.27
2023-01-10T06:19:25.085Z,85.99
2023-01-10T06:21:51.767Z,85.97
2023-01-10T06:24:20.048Z,85.97
2023-01-10T06:26:46.694Z,85.97
2023-01-10T06:29:13.424Z,86.00
2023-01-10T06:31:40.147Z,85.88
2023-01-10T06:34:06.948Z,86.02
2023-01-10T06:36:33.676Z,86.12
2023-01-10T06:39:00.547Z,86.05
2023-01-10T06:41:28.681Z,86.06
2023-01-10T06:43:55.402Z,85.71
2023-01-10T06:46:22.137Z,85.99
2023-01-10T06:48:50.167Z,85.77
2023-01-10T06:51:19.904Z,86.07
2023-01-10T06:53:50.890Z,86.14
2023-01-10T06:56:17.806Z,85.94
2023-01-10T06:58:48.840Z,85.91
2023-01-10T07:01:19.712Z,86.02
2023-01-10T07:03:47.062Z,86.03
2023-01-10T07:06:14.102Z,85.74
2023-01-10T07:08:42.981Z,85.87
2023-01-10T07:11:12.494Z,85.79
2023-01-10T07:13:39.720Z,85.81
2023-01-10T07:16:10.719Z,85.80
2023-01-10T07:18:39.669Z,85.79
2023-01-10T07:21:06.833Z,85.78
2023-01-10T07:23:33.782Z,85.73
2023-01-10T07:26:03.553Z,85.63
2023-01-10T07:28:31.088Z,85.73
2023-01-10T07:31:00.010Z,85.75
2023-01-10T07:33:29.768Z,85.65
2023-01-10T07:35:56.700Z,85.60
2023-01-10T07:38:23.824Z,85.73
2023-01-10T07:40:50.719Z,85.41
2023-01-10T07:43:17.593Z,85.73
2023-01-10T07:45:44.861Z,85.73
2023-01-10T07:48:11.737Z,85.44
2023-01-10T07:50:39.853Z,85.66
2023-01-10T07:53:08.589Z,85.40
2023-01-10T07:55:38.866Z,85.54
2023-01-10T07:58:07.920Z,85.45
2023-01-10T08:00:35.148Z,85.65
2023-01-10T08:03:02.329Z,85.55
2023-01-10T08:05:29.316Z,85.80
2023-01-10T08:08:00.163Z,85.45
2023-01-10T08:10:27.169Z,85.46
2023-01-10T08:12:55.593Z,85.51
2023-01-10T08:15:23.272Z,85.62
2023-01-10T08:17:50.089Z,85.39
2023-01-10T08:20:17.058Z,85.76
2023-01-10T08:22:43.988Z,85.63
2023-01-10T08:25:12.259Z,85.44
2023-01-10T08:27:39.137Z,85.21
2023-01-10T08:30:06.958Z,85.43
2023-01-10T08:32:34.111Z,85.41
2023-01-10T08:35:00.818Z,85.19
2023-01-10T08:37:28.692Z,85.26
2023-01-10T08:39:55.377Z,85.16
2023-01-10T08:42:23.660Z,85.19
2023-01-10T08:44:50.460Z,85.41
2023-01-10T08:47:17.254Z,85.18
2023-01-10T08:49:43.984Z,85.39
2023-01-10T08:52:10.860Z,85.32
2023-01-10T08:54:37.623Z,85.20
2023-01-10T08:57:04.516Z,84.93
2023-01-10T08:59:32.818Z,85.24
2023-01-10T09:02:00.029Z,84.90
2023-01-10T09:04:28.644Z,85.12
2023-01-10T09:06:56.224Z,85.03
2023-01-10T09:09:23.388Z,84.80
2023-01-10T09:11:50.117Z,85.18
2023-01-10T09:14:16.918Z,84.87
2023-01-10T09:16:46.816Z,84.91
2023-01-10T09:19:13.612Z,85.01
2023-01-10T09:21:40.314Z,84.71
2023-01-10T09:24:07.626Z,84.94
2023-01-10T09:26:34.685Z,84.80
2023-01-10T09:29:01.574Z,84.87
2023-01-10T09:31:28.594Z,84.60
2023-01-10T09:33:56.832Z,84.93
2023-01-10T09:36:23.540Z,84.75
2023-01-10T09:38:50.318Z,84.90
2023-01-10T09:41:49.343Z,84.87
2023-01-10T09:44:21.017Z,84.72
2023-01-10T09:46:54.343Z,84.79
2023-01-10T09:49:35.282Z,84.52
2023-01-10T09:52:08.681Z,84.60
2023-01-10T09:54:41.569Z,84.57
2023-01-10T09:57:15.025Z,84.45
2023-01-10T09:59:43.063Z,84.47
2023-01-10T10:02:23.720Z,84.62
2023-01-10T10:05:02.582Z,84.43
2023-01-10T10:07:29.565Z,84.35
2023-01-10T10:09:56.488Z,84.48
2023-01-10T10:12:31.761Z,84.35
2023-01-10T10:15:07.599Z,84.24
2023-01-10T10:17:43.196Z,84.52
2023-01-10T10:20:28.032Z,84.31
2023-01-10T10:23:09.740Z,84.23
2023-01-10T10:25:54.640Z,84.29
2023-01-10T10:28:55.149Z,84.15
2023-01-10T10:31:35.588Z,84.16
2023-01-10T10:34:10.595Z,84.39
2023-01-10T10:36:44.243Z,84.08
2023-01-10T10:39:16.246Z,84.32
2023-01-10T10:41:44.920Z,84.02
2023-01-10T10:44:27.434Z,84.03
2023-01-10T10:46:54.381Z,84.19
2023-01-10T10:49:30.937Z,83.77
2023-01-10T10:52:03.293Z,83.84
2023-01-10T10:54:30.414Z,84.17
2023-01-10T10:56:58.368Z,84.02
2023-01-10T10:59:25.144Z,84.01
2023-01-10T11:01:52.199Z,83.65
2023-01-10T11:04:22.098Z,83.52
2023-01-10T11:06:49.494Z,83.67
2023-01-10T11:09:40.644Z,83.57
2023-01-10T11:12:13.669Z,83.71
2023-01-10T11:14:43.300Z,83.48
2023-01-10T11:17:22.342Z,83.42
2023-01-10T11:19:56.322Z,83.11
2023-01-10T11:22:24.102Z,83.31
2023-01-10T11:24:55.364Z,83.17
2023-01-10T11:27:24.321Z,83.18
2023-01-10T11:29:53.102Z,83.27
2023-01-10T11:32:22.946Z,83.33
2023-01-10T11:34:54.121Z,83.32
2023-01-10T11:37:26.877Z,83.36
2023-01-10T11:40:17.596Z,83.03
2023-01-10T11:42:46.076Z,83.30
2023-01-10T11:45:27.746Z,82.92
2023-01-10T11:47:57.051Z,83.03
2023-01-10T11:50:26.186Z,83.19
2023-01-10T11:52:53.385Z,83.00
2023-01-10T11:55:24.297Z,82.80
2023-01-10T11:57:58.115Z,82.94
2023-01-10T12:00:33.122Z,82.96
2023-01-10T12:03:01.610Z,83.08
2023-01-10T12:05:28.798Z,82.65
2023-01-10T12:07:58.056Z,82.93
2023-01-10T12:10:28.665Z,82.70
2023-01-10T12:12:58.271Z,82.64
2023-01-10T12:15:28.111Z,82.77
2023-01-10T12:17:57.070Z,82.48
2023-01-10T12:20:26.285Z,82.52
2023-01-10T12:22:58.588Z,82.51
2023-01-10T12:25:33.254Z,82.56
2023-01-10T12:28:01.676Z,82.60
2023-01-10T12:30:31.918Z,82.56
2023-01-10T12:33:03.176Z,82.59
2023-01-10T12:35:40.487Z,82.57
2023-01-10T12:38:21.748Z,82.38
2023-01-10T12:40:55.999Z,82.37
2023-01-10T12:43:49.508Z,82.59
2023-01-10T12:47:00.119Z,82.42
2023-01-10T12:49:21.826Z,82.45
2023-01-10T12:51:52.287Z,82.31
2023-01-10T12:54:22.549Z,82.40
2023-01-10T12:56:51.631Z,82.28
2023-01-10T12:59:36.301Z,82.32
2023-01-10T13:02:06.461Z,82.41
2023-01-10T13:04:37.375Z,82.36
2023-01-10T13:07:05.230Z,82.35
2023-01-10T13:09:32.399Z,82.22
2023-01-10T13:12:06.711Z,82.09
2023-01-10T13:14:39.394Z,82.17
2023-01-10T13:17:25.439Z,82.23
2023-01-10T13:20:25.954Z,81.85
2023-01-10T13:22:55.709Z,81.99
2023-01-10T13:25:26.414Z,82.03
2023-01-10T13:27:58.606Z,81.86
2023-01-10T13:30:28.162Z,82.00
2023-01-10T13:33:01.871Z,82.14
2023-01-10T13:35:39.081Z,81.91
2023-01-10T13:38:06.982Z,81.67
2023-01-10T13:40:34.068Z,81.69
2023-01-10T13:43:37.174Z,81.97
2023-01-10T13:46:39.556Z,81.76
2023-01-10T13:49:39.976Z,81.75
2023-01-10T13:52:39.141Z,81.56
2023-01-10T13:55:34.281Z,81.45
2023-01-10T13:58:03.515Z,81.45
2023-01-10T14:01:06.767Z,81.44
2023-01-10T14:03:42.138Z,81.42
2023-01-10T14:06:17.056Z,81.59
2023-01-10T14:08:50.497Z,81.11
2023-01-10T14:11:18.075Z,81.58
2023-01-10T14:13:51.711Z,81.33
2023-01-10T14:16:33.712Z,81.26
2023-01-10T14:19:02.323Z,81.11
2023-01-10T14:21:31.801Z,81.20
2023-01-10T14:23:59.160Z,81.14
2023-01-10T14:26:32.139Z,81.09
2023-01-10T14:29:01.643Z,81.13
2023-01-10T14:31:31.932Z,81.03
2023-01-10T14:34:00.489Z,81.13
2023-01-10T14:36:31.232Z,81.08
2023-01-10T14:39:02.505Z,81.07
2023-01-10T14:41:34.664Z,80.77
2023-01-10T14:44:06.699Z,80.75
2023-01-10T14:46:46.597Z,80.68
2023-01-10T14:49:22.290Z,80.61
2023-01-10T14:51:50.619Z,80.77
2023-01-10T14:54:20.609Z,80.52
2023-01-10T14:56:50.001Z,81.05
2023-01-10T14:59:23.721Z,81.19
2023-01-10T15:01:55.722Z,81.44
2023-01-10T15:04:25.952Z,81.58
2023-01-10T15:06:54.929Z,81.75
2023-01-10T15:09:22.301Z,81.91
2023-01-10T15:11:50.872Z,81.92
2023-01-10T15:14:21.949Z,82.32
2023-01-10T15:16:49.356Z,82.65
2023-01-10T15:19:20.542Z,82.67
2023-01-10T15:21:47.641Z,82.78
2023-01-10T15:24:29.480Z,82.86
2023-01-10T15:26:58.858Z,83.02
2023-01-10T15:29:26.258Z,83.14
2023-01-10T15:31:55.783Z,83.27
2023-01-10T15:34:29.991Z,83.64
2023-01-10T15:37:00.390Z,84.05
2023-01-10T15:39:29.940Z,83.94
2023-01-10T15:41:59.971Z,84.06
2023-01-10T15:44:39.717Z,84.16
2023-01-10T15:47:45.972Z,84.31
2023-01-10T15:50:28.993Z,84.42
2023-01-10T15:52:57.724Z,84.88
2023-01-10T15:55:44.992Z,84.76
2023-01-10T15:58:22.745Z,85.03
2023-01-10T16:00:51.141Z,85.29
2023-01-10T16:03:25.065Z,85.22
2023-01-10T16:05:58.683Z,85.04
2023-01-10T16:08:28.277Z,85.28
2023-01-10T16:10:57.867Z,85.23
2023-01-10T16:13:28.220Z,85.38
2023-01-10T16:15:56.661Z,85.61
2023-01-10T16:18:24.687Z,85.31
2023-01-10T16:20:55.957Z,85.61
2023-01-10T16:23:25.702Z,85.47
2023-01-10T16:25:55.013Z,85.67
2023-01-10T16:28:24.359Z,85.86
2023-01-10T16:30:51.328Z,86.02
2023-01-10T16:33:23.380Z,85.75
2023-01-10T16:35:52.549Z,85.87
2023-01-10T16:38:21.936Z,85.42
2023-01-10T16:40:54.172Z,85.88
2023-01-10T16:43:22.087Z,86.14
2023-01-10T16:45:51.141Z,86.12
2023-01-10T16:48:19.421Z,86.22
2023-01-10T16:50:50.901Z,86.54
2023-01-10T16:53:20.803Z,86.22
2023-01-10T16:55:49.296Z,86.82
2023-01-10T16:58:17.946Z,86.78
2023-01-10T17:00:50.689Z,86.95
2023-01-10T17:03:23.841Z,86.83
2023-01-10T17:05:51.333Z,87.15
2023-01-10T17:08:21.749Z,86.98
2023-01-10T17:10:54.001Z,87.05
2023-01-10T17:13:25.012Z,87.06
2023-01-10T17:15:51.905Z,87.18
2023-01-10T17:18:18.822Z,87.00
2023-01-10T17:20:45.630Z,87.33
2023-01-10T17:23:17.250Z,87.35
2023-01-10T17:25:49.696Z,87.57
2023-01-10T17:28:17.705Z,87.63
2023-01-10T17:30:44.548Z,87.84
2023-01-10T17:33:12.338Z,87.74
2023-01-10T17:35:40.796Z,88.03
2023-01-10T17:38:09.432Z,87.97
2023-01-10T17:40:40.556Z,87.85
2023-01-10T17:43:11.445Z,88.08
2023-01-10T17:45:40.961Z,88.06
2023-01-10T17:48:08.867Z,88.22
2023-01-10T17:50:36.814Z,88.60
2023-01-10T17:53:05.294Z,88.23
2023-01-10T17:55:34.933Z,88.55
2023-01-10T17:58:04.093Z,88.38
2023-01-10T18:00:34.845Z,88.49
2023-01-10T18:03:01.852Z,88.53
2023-01-10T18:05:32.301Z,88.85
2023-01-10T18:08:01.409Z,88.72
2023-01-10T18:10:32.366Z,88.42
2023-01-10T18:13:01.145Z,89.14
2023-01-10T18:15:29.570Z,89.03
2023-01-10T18:17:58.141Z,88.98
2023-01-10T18:20:25.387Z,89.00
2023-01-10T18:23:11.954Z,89.28
2023-01-10T18:25:39.037Z,89.31
2023-01-10T18:28:05.992Z,89.02
2023-01-10T18:30:45.261Z,89.24
2023-01-10T18:33:13.393Z,89.33
2023-01-10T18:35:40.567Z,89.36
2023-01-10T18:38:07.476Z,89.14
2023-01-10T18:40:37.023Z,89.49
2023-01-10T18:43:04.065Z,89.26
2023-01-10T18:45:31.087Z,89.41
2023-01-10T18:47:59.287Z,89.26
2023-01-10T18:50:29.132Z,89.38
2023-01-10T18:53:14.792Z,89.36
2023-01-10T18:55:41.809Z,89.40
2023-01-10T18:58:10.437Z,89.30
2023-01-10T19:00:37.413Z,89.32
2023-01-10T19:03:06.656Z,89.37
2023-01-10T19:05:35.105Z,89.59
2023-01-10T19:08:02.223Z,89.33
2023-01-10T19:10:40.695Z,89.60
2023-01-10T19:13:16.795Z,89.73
2023-01-10T19:15:43.995Z,89.37
2023-01-10T19:18:13.110Z,89.39
2023-01-10T19:20:41.584Z,89.42
2023-01-10T19:23:08.807Z,89.52
2023-01-10T19:25:36.115Z,89.57
2023-01-10T19:28:04.710Z,89.52
2023-01-10T19:30:31.543Z,89.31
2023-01-10T19:32:58.869Z,89.53
2023-01-10T19:35:25.811Z,89.70
2023-01-10T19:37:54.703Z,89.58
2023-01-10T19:40:22.780Z,89.47
2023-01-10T19:42:50.446Z,89.42
2023-01-10T19:45:17.649Z,89.44
2023-01-10T19:47:44.748Z,89.79
2023-01-10T19:50:11.717Z,89.73
2023-01-10T19:52:38.579Z,89.58
2023-01-10T19:55:08.641Z,89.68
2023-01-10T19:57:35.371Z,89.77
2023-01-10T20:00:02.567Z,89.77
2023-01-10T20:02:30.637Z,90.03
2023-01-10T20:04:57.573Z,89.79
2023-01-10T20:07:24.564Z,89.87
2023-01-10T20:09:51.413Z,89.87
2023-01-10T20:12:21.033Z,89.80
2023-01-10T20:14:48.421Z,90.06
2023-01-10T20:17:15.450Z,89.79
2023-01-10T20:19:42.370Z,89.79
2023-01-10T20:22:09.446Z,90.07
2023-01-10T20:24:36.861Z,89.84
2023-01-10T20:27:07.653Z,89.78
2023-01-10T20:29:37.122Z,89.61
2023-01-10T20:32:06.602Z,89.61
2023-01-10T20:34:33.779Z,89.51
2023-01-10T20:37:07.893Z,89.62
2023-01-10T20:39:35.348Z,89.43
2023-01-10T20:42:02.621Z,89.59
2023-01-10T20:44:29.840Z,89.81
2023-01-10T20:47:00.422Z,89.72
2023-01-10T20:49:27.328Z,89.83
2023-01-10T20:51:55.498Z,89.51
2023-01-10T20:54:22.675Z,89.82
2023-01-10T20:56:50.367Z,89.38
2023-01-10T20:59:17.485Z,89.35
2023-01-10T21:01:44.599Z,89.32
2023-01-10T21:04:13.370Z,89.65
2023-01-10T21:06:40.152Z,89.75
2023-01-10T21:09:07.564Z,89.49
2023-01-10T21:11:52.151Z,89.40
2023-01-10T21:14:25.165Z,89.58
2023-01-10T21:16:53.547Z,89.70
2023-01-10T21:19:21.741Z,89.62
2023-01-10T21:21:48.645Z,89.35
2023-01-10T21:24:16.058Z,89.37
2023-01-10T21:26:43.152Z,89.71
2023-01-10T21:29:12.269Z,89.93
2023-01-10T21:31:39.754Z,89.78
2023-01-10T21:34:06.911Z,89.84
2023-01-10T21:36:34.913Z,89.85
2023-01-10T21:39:02.751Z,90.08
2023-01-10T21:41:48.524Z,90.11
2023-01-10T21:44:15.462Z,90.50
2023-01-10T21:46:44.793Z,90.51
2023-01-10T21:49:11.775Z,90.43
2023-01-10T21:51:40.091Z,90.42
2023-01-10T21:54:06.905Z,90.67
2023-01-10T21:56:33.574Z,90.53
2023-01-10T21:59:00.993Z,90.67
2023-01-10T22:01:27.901Z,90.86
2023-01-10T22:03:54.710Z,90.84
2023-01-10T22:06:21.944Z,90.88
2023-01-10T22:08:52.836Z,90.93
2023-01-10T22:11:19.905Z,91.17
2023-01-10T22:13:47.554Z,90.88
2023-01-10T22:16:15.064Z,91.35
2023-01-10T22:18:43.169Z,91.35
2023-01-10T22:21:10.910Z,91.34
2023-01-10T22:23:37.939Z,91.25
2023-01-10T22:26:07.913Z,91.20
2023-01-10T22:28:34.907Z,91.53
2023-01-10T22:31:02.431Z,91.37
2023-01-10T22:33:30.560Z,91.73
2023-01-10T22:35:57.798Z,91.66
2023-01-10T22:38:24.502Z,92.03
2023-01-10T22:40:51.265Z,91.59
2023-01-10T22:43:20.885Z,92.05
2023-01-10T22:45:47.585Z,91.90
2023-01-10T22:48:14.292Z,91.96
2023-01-10T22:50:48.816Z,91.89
2023-01-10T22:53:15.618Z,92.22
2023-01-10T22:55:42.297Z,92.12
2023-01-10T22:58:09.136Z,92.35
2023-01-10T23:00:37.288Z,91.92
2023-01-10T23:03:04.200Z,92.17
2023-01-10T23:05:30.834Z,91.97
2023-01-10T23:07:57.682Z,92.28
2023-01-10T23:10:30.142Z,92.01
2023-01-10T23:12:57.931Z,92.25
2023-01-10T23:15:25.277Z,92.43
2023-01-10T23:17:53.428Z,92.51
2023-01-10T23:20:20.445Z,92.33
2023-01-10T23:22:47.193Z,92.61
2023-01-10T23:25:15.332Z,92.50
2023-01-10T23:27:41.986Z,92.64
2023-01-10T23:30:10.725Z,92.78
2023-01-10T23:32:37.588Z,93.10
2023-01-10T23:35:06.212Z,93.03
2023-01-10T23:37:33.000Z,93.36
2023-01-10T23:39:59.698Z,93.36
2023-01-10T23:42:26.445Z,93.22
2023-01-10T23:44:53.124Z,93.56
2023-01-10T23:47:19.867Z,93.16
2023-01-10T23:49:46.517Z,93.50
2023-01-10T23:52:14.986Z,93.20
2023-01-10T23:54:41.643Z,92.87
2023-01-10T23:57:08.356Z,93.28
2023-01-10T23:59:35.019Z,93.45
